createdAt,value
2023-02-07T00:02:23.452Z,16.70
2023-02-07T00:05:20.300Z,16.27
2023-02-07T00:08:17.239Z,15.80
2023-02-07T00:11:19.333Z,11.93
2023-02-07T00:14:16.178Z,14.98
2023-02-07T00:17:13.009Z,15.63
2023-02-07T00:20:10.911Z,13.75
2023-02-07T00:23:07.720Z,13.45
2023-02-07T00:26:07.371Z,13.93
2023-02-07T00:29:05.053Z,14.27
2023-02-07T00:32:01.905Z,12.82
2023-02-07T00:34:58.734Z,13.70
2023-02-07T00:37:55.629Z,12.13
2023-02-07T00:40:52.466Z,15.93
2023-02-07T00:43:49.286Z,16.25
2023-02-07T00:46:46.213Z,17.90
2023-02-07T00:49:43.037Z,18.23
2023-02-07T00:52:39.857Z,17.15
2023-02-07T00:55:36.944Z,15.20
2023-02-07T00:58:34.226Z,15.70
2023-02-07T01:01:31.337Z,15.88
2023-02-07T01:04:28.280Z,14.13
2023-02-07T01:07:25.154Z,16.98
2023-02-07T01:10:22.834Z,16.90
2023-02-07T01:13:19.961Z,14.73
2023-02-07T01:16:36.272Z,14.93
2023-02-07T01:19:33.089Z,17.95
2023-02-07T01:22:29.939Z,16.75
2023-02-07T01:25:26.828Z,15.93
2023-02-07T01:28:23.662Z,16.90
2023-02-07T01:31:22.156Z,16.77
2023-02-07T01:34:19.390Z,18.17
2023-02-07T01:37:16.364Z,18.88
2023-02-07T01:40:13.789Z,16.85
2023-02-07T01:43:22.479Z,15.35
2023-02-07T01:46:19.311Z,18.13
2023-02-07T01:49:22.005Z,17.98
2023-02-07T01:52:26.229Z,19.02
2023-02-07T01:55:31.885Z,18.25
2023-02-07T01:58:29.086Z,19.23
2023-02-07T02:01:26.584Z,15.95
2023-02-07T02:04:23.685Z,17.20
2023-02-07T02:07:21.808Z,18.27
2023-02-07T02:10:24.767Z,20.02
2023-02-07T02:13:47.688Z,21.60
2023-02-07T02:17:18.235Z,18.85
2023-02-07T02:24:13.239Z,18.10
2023-02-07T02:27:52.349Z,14.95
2023-02-07T02:31:04.673Z,18.42
2023-02-07T02:34:21.685Z,19.85
2023-02-07T02:37:52.435Z,17.75
2023-02-07T02:41:01.669Z,16.52
2023-02-07T02:44:18.573Z,13.57
2023-02-07T02:47:17.731Z,15.32
2023-02-07T02:50:21.361Z,17.95
2023-02-07T02:53:18.237Z,17.60
2023-02-07T02:56:36.524Z,14.98
2023-02-07T03:00:13.904Z,17.45
2023-02-07T03:03:37.146Z,14.68
2023-02-07T03:06:42.400Z,14.68
2023-02-07T03:10:10.983Z,14.43
2023-02-07T03:13:27.472Z,13.40
2023-02-07T03:16:42.853Z,12.68
2023-02-07T03:19:51.530Z,11.27
2023-02-07T03:22:50.985Z,19.77
2023-02-07T03:25:50.618Z,15.07
2023-02-07T03:28:49.542Z,11.73
2023-02-07T03:31:51.557Z,8.00
2023-02-07T03:34:58.266Z,11.00
2023-02-07T03:38:00.560Z,9.50
2023-02-07T03:41:04.956Z,10.30
2023-02-07T03:44:07.034Z,9.63
2023-02-07T03:47:04.749Z,11.00
2023-02-07T03:50:01.606Z,9.75
2023-02-07T03:52:58.424Z,8.98
2023-02-07T03:55:55.353Z,7.28
2023-02-07T03:58:52.287Z,11.00
2023-02-07T04:01:49.894Z,9.55
2023-02-07T04:04:46.763Z,7.95
2023-02-07T04:07:43.653Z,13.10
2023-02-07T04:10:40.532Z,7.22
2023-02-07T04:13:37.595Z,9.38
2023-02-07T04:16:34.568Z,11.18
2023-02-07T04:19:31.464Z,11.80
2023-02-07T04:22:29.516Z,12.93
2023-02-07T04:25:26.425Z,11.75
2023-02-07T04:28:23.407Z,15.90
2023-02-07T04:31:20.295Z,10.75
2023-02-07T04:34:17.159Z,15.40
2023-02-07T04:37:14.294Z,9.63
2023-02-07T04:40:11.581Z,8.52
2023-02-07T04:43:08.396Z,9.13
2023-02-07T04:46:06.572Z,8.18
2023-02-07T04:49:04.273Z,10.88
2023-02-07T04:52:01.121Z,11.02
2023-02-07T04:54:57.968Z,8.65
2023-02-07T04:57:54.796Z,9.80
2023-02-07T05:00:53.286Z,6.32
2023-02-07T05:03:50.229Z,7.55
2023-02-07T05:06:47.790Z,7.32
2023-02-07T05:09:44.671Z,9.50
2023-02-07T05:12:41.493Z,7.38
2023-02-07T05:15:38.789Z,8.10
2023-02-07T05:18:35.816Z,8.60
2023-02-07T05:21:32.821Z,8.20
2023-02-07T05:24:29.881Z,9.80
2023-02-07T05:27:26.979Z,5.63
2023-02-07T05:30:24.301Z,8.07
2023-02-07T05:33:21.144Z,7.55
2023-02-07T05:36:17.955Z,7.47
2023-02-07T05:39:14.840Z,6.72
2023-02-07T05:42:14.664Z,9.65
2023-02-07T05:45:11.984Z,6.25
2023-02-07T05:48:08.958Z,9.23
2023-02-07T05:51:06.125Z,10.23
2023-02-07T05:54:03.040Z,8.80
2023-02-07T05:56:59.861Z,8.10
2023-02-07T05:59:57.229Z,5.47
2023-02-07T06:02:54.089Z,7.07
2023-02-07T06:05:51.226Z,9.63
2023-02-07T06:08:48.165Z,6.95
2023-02-07T06:11:44.972Z,8.05
2023-02-07T06:14:41.842Z,11.95
2023-02-07T06:17:38.627Z,11.65
2023-02-07T06:20:35.527Z,14.88
2023-02-07T06:23:32.385Z,12.75
2023-02-07T06:26:29.438Z,21.55
2023-02-07T06:29:26.261Z,18.23
2023-02-07T06:32:23.092Z,17.25
2023-02-07T06:35:20.174Z,19.38
2023-02-07T06:38:18.270Z,17.73
2023-02-07T06:41:15.308Z,19.58
2023-02-07T06:44:12.160Z,16.35
2023-02-07T06:47:09.071Z,20.77
2023-02-07T06:50:08.870Z,17.23
2023-02-07T06:53:05.978Z,13.45
2023-02-07T06:56:02.940Z,8.90
2023-02-07T06:58:59.853Z,13.68
2023-02-07T07:01:56.749Z,15.30
2023-02-07T07:04:53.564Z,15.10
2023-02-07T07:07:51.595Z,16.83
2023-02-07T07:10:48.458Z,15.00
2023-02-07T07:13:45.389Z,14.85
2023-02-07T07:16:42.225Z,13.15
2023-02-07T07:19:39.098Z,15.60
2023-02-07T07:22:35.929Z,13.35
2023-02-07T07:25:32.747Z,15.30
2023-02-07T07:28:30.074Z,14.95
2023-02-07T07:31:27.861Z,15.52
2023-02-07T07:34:24.722Z,12.88
2023-02-07T07:37:21.635Z,12.02
2023-02-07T07:40:18.528Z,16.58
2023-02-07T07:43:15.384Z,16.00
2023-02-07T07:46:12.234Z,14.82
2023-02-07T07:49:09.376Z,14.57
2023-02-07T07:52:06.441Z,15.48
2023-02-07T07:55:03.705Z,14.23
2023-02-07T07:58:00.611Z,10.32
2023-02-07T08:00:57.571Z,16.27
2023-02-07T08:03:54.582Z,15.20
2023-02-07T08:06:51.455Z,14.35
2023-02-07T08:09:48.331Z,15.73
2023-02-07T08:12:45.134Z,17.67
2023-02-07T08:15:42.266Z,20.33
2023-02-07T08:18:39.068Z,23.08
2023-02-07T08:21:36.007Z,19.50
2023-02-07T08:24:34.504Z,20.38
2023-02-07T08:27:31.348Z,18.42
2023-02-07T08:30:28.218Z,17.73
2023-02-07T08:33:25.040Z,20.55
2023-02-07T08:36:21.996Z,19.35
2023-02-07T08:39:19.009Z,17.77
2023-02-07T08:42:15.830Z,18.40
2023-02-07T08:45:14.173Z,17.48
2023-02-07T08:48:11.059Z,15.27
2023-02-07T08:51:09.306Z,14.13
2023-02-07T08:54:06.252Z,12.85
2023-02-07T08:57:03.634Z,15.10
2023-02-07T09:00:01.077Z,9.75
2023-02-07T09:02:57.890Z,12.75
2023-02-07T09:05:59.442Z,12.27
2023-02-07T09:08:56.280Z,8.65
2023-02-07T09:11:53.135Z,11.32
2023-02-07T09:14:49.957Z,10.80
2023-02-07T09:17:46.745Z,10.98
2023-02-07T09:20:44.277Z,11.30
2023-02-07T09:23:41.872Z,9.25
2023-02-07T09:26:39.062Z,8.27
2023-02-07T09:29:36.287Z,10.07
2023-02-07T09:32:34.298Z,10.55
2023-02-07T09:35:31.222Z,10.30
2023-02-07T09:38:28.416Z,9.35
2023-02-07T09:41:53.100Z,9.52
2023-02-07T09:45:03.644Z,9.02
2023-02-07T09:48:11.140Z,8.73
2023-02-07T09:51:13.382Z,9.73
2023-02-07T09:54:31.915Z,10.27
2023-02-07T09:57:46.937Z,8.93
2023-02-07T10:00:53.876Z,6.20
2023-02-07T10:04:36.285Z,7.68
2023-02-07T10:07:33.597Z,6.25
2023-02-07T10:10:50.864Z,6.20
2023-02-07T10:14:22.392Z,5.63
2023-02-07T10:17:46.125Z,5.93
2023-02-07T10:21:10.055Z,5.45
2023-02-07T10:24:44.360Z,3.97
2023-02-07T10:28:19.601Z,3.80
2023-02-07T10:31:19.094Z,4.35
2023-02-07T10:34:23.484Z,4.90
2023-02-07T10:37:27.306Z,3.63
2023-02-07T10:40:41.046Z,3.30
2023-02-07T10:43:41.754Z,3.75
2023-02-07T10:46:42.612Z,3.88
2023-02-07T10:49:39.955Z,2.55
2023-02-07T10:52:44.184Z,3.85
2023-02-07T10:55:48.063Z,3.40
2023-02-07T10:58:44.979Z,2.78
2023-02-07T11:01:41.836Z,2.75
2023-02-07T11:04:42.729Z,2.30
2023-02-07T11:07:47.463Z,2.70
2023-02-07T11:10:46.838Z,2.42
2023-02-07T11:13:50.897Z,1.83
2023-02-07T11:16:48.715Z,1.98
2023-02-07T11:19:45.693Z,2.20
2023-02-07T11:22:43.436Z,2.53
2023-02-07T11:25:47.433Z,1.55
2023-02-07T11:28:44.592Z,1.92
2023-02-07T11:31:44.725Z,1.75
2023-02-07T11:34:57.154Z,2.33
2023-02-07T11:38:06.402Z,2.40
2023-02-07T11:41:06.760Z,2.10
2023-02-07T11:44:17.129Z,1.17
2023-02-07T11:47:19.816Z,3.17
2023-02-07T11:50:27.305Z,2.03
2023-02-07T11:53:44.109Z,2.10
2023-02-07T11:56:45.344Z,2.75
2023-02-07T12:00:16.999Z,2.25
2023-02-07T12:03:28.661Z,2.58
2023-02-07T12:06:39.328Z,2.72
2023-02-07T12:09:57.298Z,3.03
2023-02-07T12:13:12.405Z,2.38
2023-02-07T12:16:24.364Z,2.67
2023-02-07T12:19:34.281Z,1.92
2023-02-07T12:22:44.556Z,2.30
2023-02-07T12:26:22.951Z,2.97
2023-02-07T12:30:10.651Z,3.05
2023-02-07T12:33:43.980Z,2.47
2023-02-07T12:36:48.415Z,2.47
2023-02-07T12:40:24.890Z,2.20
2023-02-07T12:43:35.916Z,1.98
2023-02-07T12:47:10.700Z,2.40
2023-02-07T12:50:23.795Z,2.53
2023-02-07T12:53:48.576Z,1.95
2023-02-07T12:57:41.323Z,1.73
2023-02-07T13:01:28.582Z,1.23
2023-02-07T13:05:04.219Z,2.33
2023-02-07T13:08:54.175Z,1.58
2023-02-07T13:12:29.465Z,2.45
2023-02-07T13:15:59.158Z,1.90
2023-02-07T13:19:14.032Z,3.42
2023-02-07T13:22:43.228Z,1.85
2023-02-07T13:25:47.333Z,2.72
2023-02-07T13:28:59.025Z,2.00
2023-02-07T13:32:03.319Z,3.03
2023-02-07T13:35:06.432Z,2.83
2023-02-07T13:38:51.691Z,2.30
2023-02-07T13:42:32.312Z,2.88
2023-02-07T13:45:37.305Z,2.78
2023-02-07T13:48:55.748Z,4.20
2023-02-07T13:52:16.995Z,2.67
2023-02-07T13:55:38.518Z,2.95
2023-02-07T13:58:53.751Z,2.70
2023-02-07T14:01:57.952Z,3.63
2023-02-07T14:05:06.580Z,3.33
2023-02-07T14:08:25.708Z,5.07
2023-02-07T14:11:36.310Z,3.17
2023-02-07T14:14:38.942Z,4.75
2023-02-07T14:17:44.865Z,4.22
2023-02-07T14:20:41.716Z,4.10
2023-02-07T14:23:57.295Z,4.05
2023-02-07T14:27:00.763Z,5.90
2023-02-07T14:30:00.539Z,5.72
2023-02-07T14:33:16.583Z,5.77
2023-02-07T14:36:13.240Z,4.20
2023-02-07T14:39:18.894Z,7.85
2023-02-07T14:42:21.939Z,30.45
2023-02-07T14:45:21.772Z,7.40
2023-02-07T14:48:37.356Z,6.63
2023-02-07T14:51:53.610Z,18.92
2023-02-07T14:55:14.040Z,9.65
2023-02-07T14:58:28.180Z,60.42
2023-02-07T15:01:25.931Z,14.65
2023-02-07T15:04:22.828Z,169.65
2023-02-07T15:07:19.671Z,56.97
2023-02-07T15:10:36.814Z,99.72
2023-02-07T15:14:02.092Z,143.75
2023-02-07T15:17:00.605Z,11.65
2023-02-07T15:19:57.521Z,23.13
2023-02-07T15:22:57.291Z,39.45
2023-02-07T15:25:54.285Z,31.67
2023-02-07T15:29:04.358Z,37.33
2023-02-07T15:32:01.468Z,25.30
2023-02-07T15:35:11.881Z,31.90
2023-02-07T15:38:23.787Z,43.78
2023-02-07T15:41:20.645Z,67.40
2023-02-07T15:44:27.739Z,56.60
2023-02-07T15:47:32.930Z,85.25
2023-02-07T15:50:30.994Z,45.10
2023-02-07T15:53:30.478Z,54.63
2023-02-07T15:56:30.028Z,44.55
2023-02-07T15:59:31.955Z,26.77
2023-02-07T16:02:38.986Z,42.03
2023-02-07T16:05:39.006Z,44.80
2023-02-07T16:08:40.980Z,33.35
2023-02-07T16:11:39.952Z,49.80
2023-02-07T16:14:41.159Z,60.22
2023-02-07T16:17:42.032Z,17.85
2023-02-07T16:20:41.989Z,54.95
2023-02-07T16:23:39.086Z,54.25
2023-02-07T16:26:37.176Z,21.10
2023-02-07T16:29:36.240Z,18.52
2023-02-07T16:32:34.188Z,60.38
2023-02-07T16:35:31.006Z,21.27
2023-02-07T16:38:27.823Z,21.02
2023-02-07T16:41:32.309Z,35.03
2023-02-07T16:44:31.180Z,18.55
2023-02-07T16:47:28.161Z,11.98
2023-02-07T16:50:28.338Z,12.25
2023-02-07T16:53:25.417Z,14.68
2023-02-07T16:56:26.838Z,14.98
2023-02-07T16:59:24.796Z,16.08
2023-02-07T17:02:21.625Z,15.35
2023-02-07T17:05:22.675Z,19.63
2023-02-07T17:08:26.939Z,15.93
2023-02-07T17:11:25.756Z,19.02
2023-02-07T17:14:22.677Z,18.95
2023-02-07T17:17:19.504Z,18.48
2023-02-07T17:20:30.657Z,17.88
2023-02-07T17:23:28.719Z,38.95
2023-02-07T17:26:31.277Z,24.23
2023-02-07T17:29:28.240Z,54.58
2023-02-07T17:32:25.109Z,79.88
2023-02-07T17:35:22.083Z,78.63
2023-02-07T17:38:18.983Z,40.30
2023-02-07T17:41:17.811Z,47.28
2023-02-07T17:44:14.624Z,28.50
2023-02-07T17:47:11.705Z,66.07
2023-02-07T17:50:22.114Z,68.63
2023-02-07T17:53:21.442Z,43.20
2023-02-07T17:56:29.301Z,57.35
2023-02-07T17:59:26.226Z,40.10
2023-02-07T18:02:23.132Z,38.60
2023-02-07T18:05:20.377Z,62.47
2023-02-07T18:08:17.234Z,31.42
2023-02-07T18:11:14.428Z,23.75
2023-02-07T18:14:11.597Z,34.63
2023-02-07T18:17:11.089Z,25.45
2023-02-07T18:20:11.057Z,15.57
2023-02-07T18:23:07.962Z,12.90
2023-02-07T18:26:05.090Z,12.25
2023-02-07T18:29:01.894Z,11.43
2023-02-07T18:31:58.704Z,18.30
2023-02-07T18:34:55.615Z,20.58
2023-02-07T18:37:52.549Z,19.20
2023-02-07T18:40:49.464Z,14.77
2023-02-07T18:43:46.755Z,16.77
2023-02-07T18:46:43.661Z,15.77
2023-02-07T18:49:40.504Z,14.48
2023-02-07T18:52:38.767Z,29.95
2023-02-07T18:55:36.661Z,42.08
2023-02-07T18:58:34.457Z,33.63
2023-02-07T19:01:31.686Z,32.95
2023-02-07T19:04:28.811Z,24.52
2023-02-07T19:07:25.730Z,31.27
2023-02-07T19:10:23.442Z,15.98
2023-02-07T19:13:20.300Z,15.20
2023-02-07T19:16:22.135Z,16.17
2023-02-07T19:19:19.007Z,16.98
2023-02-07T19:22:21.568Z,11.75
2023-02-07T19:25:23.778Z,13.68
2023-02-07T19:28:20.636Z,10.82
2023-02-07T19:31:18.288Z,15.43
2023-02-07T19:34:15.407Z,9.93
2023-02-07T19:37:12.263Z,7.10
2023-02-07T19:40:10.418Z,7.72
2023-02-07T19:43:07.361Z,7.25
2023-02-07T19:46:04.370Z,8.32
2023-02-07T19:49:01.290Z,5.63
2023-02-07T19:51:58.094Z,6.38
2023-02-07T19:54:55.936Z,10.43
2023-02-07T19:57:54.531Z,9.45
2023-02-07T20:00:51.352Z,8.52
2023-02-07T20:03:52.578Z,10.60
2023-02-07T20:06:49.433Z,10.23
2023-02-07T20:09:46.591Z,9.45
2023-02-07T20:12:43.405Z,9.00
2023-02-07T20:15:41.658Z,7.97
2023-02-07T20:18:38.769Z,7.18
2023-02-07T20:21:37.053Z,10.43
2023-02-07T20:24:33.909Z,9.38
2023-02-07T20:27:30.714Z,8.88
2023-02-07T20:30:27.896Z,8.55
2023-02-07T20:33:24.897Z,11.07
2023-02-07T20:36:22.141Z,7.60
2023-02-07T20:39:21.798Z,8.55
2023-02-07T20:42:19.522Z,9.80
2023-02-07T20:45:16.646Z,6.25
2023-02-07T20:48:15.101Z,6.53
2023-02-07T20:51:11.996Z,7.05
2023-02-07T20:54:11.256Z,8.27
2023-02-07T20:57:08.061Z,7.20
2023-02-07T21:00:07.494Z,5.68
2023-02-07T21:03:04.365Z,7.55
2023-02-07T21:06:01.176Z,9.68
2023-02-07T21:09:00.700Z,7.95
2023-02-07T21:11:58.520Z,8.52
2023-02-07T21:14:55.762Z,8.85
2023-02-07T21:17:52.576Z,7.80
2023-02-07T21:20:49.779Z,10.75
2023-02-07T21:23:46.596Z,8.70
2023-02-07T21:26:43.843Z,9.13
2023-02-07T21:29:40.804Z,10.02
2023-02-07T21:32:37.592Z,8.27
2023-02-07T21:35:34.477Z,7.93
2023-02-07T21:38:31.348Z,8.40
2023-02-07T21:41:29.237Z,8.05
2023-02-07T21:44:26.155Z,10.10
2023-02-07T21:47:22.956Z,6.72
2023-02-07T21:50:19.813Z,10.43
2023-02-07T21:53:17.277Z,7.78
2023-02-07T21:56:20.306Z,7.13
2023-02-07T21:59:19.495Z,5.07
2023-02-07T22:02:16.349Z,9.40
2023-02-07T22:05:13.186Z,8.15
2023-02-07T22:08:11.282Z,9.50
2023-02-07T22:11:11.104Z,7.75
2023-02-07T22:14:08.193Z,7.38
2023-02-07T22:17:05.000Z,6.07
2023-02-07T22:20:01.876Z,4.80
2023-02-07T22:22:58.678Z,8.27
2023-02-07T22:25:55.486Z,8.75
2023-02-07T22:28:53.398Z,6.68
2023-02-07T22:31:50.327Z,5.97
2023-02-07T22:34:47.259Z,5.40
2023-02-07T22:37:44.651Z,6.75
2023-02-07T22:40:42.865Z,9.13
2023-02-07T22:43:40.781Z,6.57
2023-02-07T22:46:37.921Z,8.50
2023-02-07T22:49:36.215Z,6.88
2023-02-07T22:52:33.977Z,8.00
2023-02-07T22:55:33.206Z,8.80
2023-02-07T22:58:30.113Z,6.90
2023-02-07T23:01:30.871Z,5.97
2023-02-07T23:04:27.724Z,8.93
2023-02-07T23:07:26.135Z,8.48
2023-02-07T23:10:26.338Z,9.05
2023-02-07T23:13:23.449Z,7.03
2023-02-07T23:16:24.725Z,8.55
2023-02-07T23:19:21.520Z,8.50
2023-02-07T23:22:18.414Z,5.53
2023-02-07T23:25:16.102Z,4.32
2023-02-07T23:28:14.292Z,7.47
2023-02-07T23:31:15.109Z,6.55
2023-02-07T23:34:12.131Z,6.53
2023-02-07T23:37:08.945Z,5.80
2023-02-07T23:40:06.331Z,6.18
2023-02-07T23:43:03.141Z,5.35
2023-02-07T23:46:00.014Z,8.57
2023-02-07T23:48:56.834Z,8.15
2023-02-07T23:51:53.665Z,5.53
2023-02-07T23:54:50.504Z,7.13
2023-02-07T23:57:47.339Z,5.90
